Time,TemperatureF,DewpointF,PressureIn,WindDirection,WindDirectionDegrees,WindSpeedMPH,WindSpeedGustMPH,Humidity,HourlyPrecipIn,Conditions,Clouds,dailyrainin,SoftwareType,DateUTC
2013-10-16 00:15:00,56.7,39.8,29.93,SW,225,2.2,-999.0,53,-99.99,,,0.00,Acu-Link.com,2013-10-16 07:15:00,
2013-10-16 00:30:00,57.7,39.7,29.93,SW,225,1.7,-999.0,51,-99.99,,,0.00,Acu-Link.com,2013-10-16 07:30:00,
2013-10-16 00:45:00,59.9,40.2,29.95,SW,225,2.2,-999.0,48,-99.99,,,0.00,Acu-Link.com,2013-10-16 07:45:00,
2013-10-16 01:01:00,60.8,39.9,29.95,SW,225,2.7,-999.0,46,-99.99,,,0.00,Acu-Link.com,2013-10-16 08:01:00,
2013-10-16 01:16:00,61.7,39.6,29.94,SW,225,0.0,-999.0,44,-99.99,,,0.00,Acu-Link.com,2013-10-16 08:16:00,
2013-10-16 01:31:00,61.9,38.6,29.95,SW,225,0.0,-999.0,42,-99.99,,,0.00,Acu-Link.com,2013-10-16 08:31:00,
2013-10-16 01:46:00,62.2,38.2,29.95,SW,225,0.0,-999.0,41,-99.99,,,0.00,Acu-Link.com,2013-10-16 08:46:00,
2013-10-16 02:01:00,63.5,38.7,29.96,SW,225,1.7,-999.0,40,-99.99,,,0.00,Acu-Link.com,2013-10-16 09:01:00,
2013-10-16 02:16:00,66.7,38.9,29.96,NNW,337,1.1,-999.0,36,-99.99,,,0.00,Acu-Link.com,2013-10-16 09:16:00,
2013-10-16 02:31:00,67.6,39.7,29.96,North,0,0.0,-999.0,36,-99.99,,,0.00,Acu-Link.com,2013-10-16 09:31:00,
2013-10-16 02:47:00,67.1,38.5,29.96,North,0,1.1,-999.0,35,-99.99,,,0.00,Acu-Link.com,2013-10-16 09:47:00,
2013-10-16 03:02:00,66.9,37.6,29.96,North,0,1.1,-999.0,34,-99.99,,,0.00,Acu-Link.com,2013-10-16 10:02:00,
2013-10-16 03:17:00,67.1,37.8,29.96,North,0,0.0,-999.0,34,-99.99,,,0.00,Acu-Link.com,2013-10-16 10:17:00,
2013-10-16 03:32:00,66.6,37.4,29.96,North,0,0.0,-999.0,34,-99.99,,,0.00,Acu-Link.com,2013-10-16 10:32:00,
2013-10-16 03:47:00,66.2,37.0,29.97,North,0,0.0,-999.0,34,-99.99,,,0.00,Acu-Link.com,2013-10-16 10:47:00,
2013-10-16 04:03:00,66.4,37.2,29.97,North,0,0.0,-999.0,34,-99.99,,,0.00,Acu-Link.com,2013-10-16 11:03:00,
2013-10-16 04:18:00,66.4,36.4,29.98,North,0,0.0,-999.0,33,-99.99,,,0.00,Acu-Link.com,2013-10-16 11:18:00,
2013-10-16 04:33:00,66.9,36.9,29.98,North,0,2.7,-999.0,33,-99.99,,,0.00,Acu-Link.com,2013-10-16 11:33:00,
2013-10-16 04:48:00,68.0,37.8,29.98,North,0,2.7,-999.0,33,-99.99,,,0.00,Acu-Link.com,2013-10-16 11:48:00,
2013-10-16 05:03:00,67.8,37.6,29.98,North,0,3.7,-999.0,33,-99.99,,,0.00,Acu-Link.com,2013-10-16 12:03:00,
2013-10-16 05:19:00,67.3,36.4,29.98,NW,315,3.2,-999.0,32,-99.99,,,0.00,Acu-Link.com,2013-10-16 12:19:00,
2013-10-16 05:34:00,66.9,36.1,29.99,NNW,337,5.8,-999.0,32,-99.99,,,0.00,Acu-Link.com,2013-10-16 12:34:00,
2013-10-16 05:49:00,67.5,36.6,30.00,NNW,337,4.2,-999.0,32,-99.99,,,0.00,Acu-Link.com,2013-10-16 12:49:00,
2013-10-16 06:04:00,68.0,37.0,30.00,NNW,337,1.7,-999.0,32,-99.99,,,0.00,Acu-Link.com,2013-10-16 13:04:00,
2013-10-16 06:20:00,67.8,36.9,30.01,NW,315,1.7,-999.0,32,-99.99,,,0.00,Acu-Link.com,2013-10-16 13:20:00,
2013-10-16 06:35:00,67.3,36.4,30.01,NNW,337,2.2,-999.0,32,-99.99,,,0.00,Acu-Link.com,2013-10-16 13:35:00,
2013-10-16 06:50:00,67.1,36.3,30.01,NW,315,2.7,-999.0,32,-99.99,,,0.00,Acu-Link.com,2013-10-16 13:50:00,
2013-10-16 07:05:00,67.5,36.6,30.02,North,0,1.1,-999.0,32,-99.99,,,0.00,Acu-Link.com,2013-10-16 14:05:00,
2013-10-16 07:20:00,66.4,35.6,30.02,North,0,1.1,-999.0,32,-99.99,,,0.00,Acu-Link.com,2013-10-16 14:20:00,
2013-10-16 07:36:00,67.3,36.4,30.03,North,0,3.2,-999.0,32,-99.99,,,0.00,Acu-Link.com,2013-10-16 14:36:00,
2013-10-16 07:51:00,67.8,36.9,30.03,North,0,2.7,-999.0,32,-99.99,,,0.00,Acu-Link.com,2013-10-16 14:51:00,
2013-10-16 08:06:00,68.7,37.6,30.04,East,90,3.2,-999.0,32,-99.99,,,0.00,Acu-Link.com,2013-10-16 15:06:00,
2013-10-16 08:21:00,71.4,40.0,30.04,NNW,337,1.7,-999.0,32,-99.99,,,0.00,Acu-Link.com,2013-10-16 15:21:00,
2013-10-16 08:36:00,75.7,43.7,30.04,East,90,2.7,-999.0,32,-99.99,,,0.00,Acu-Link.com,2013-10-16 15:36:00,
2013-10-16 08:52:00,79.2,45.9,30.05,ESE,112,4.2,-999.0,31,-99.99,,,0.00,Acu-Link.com,2013-10-16 15:52:00,
2013-10-16 09:07:00,77.0,43.2,30.05,North,0,3.2,-999.0,30,-99.99,,,0.00,Acu-Link.com,2013-10-16 16:07:00,
2013-10-16 09:22:00,78.3,43.4,30.05,North,0,2.2,-999.0,29,-99.99,,,0.00,Acu-Link.com,2013-10-16 16:22:00,
2013-10-16 09:37:00,79.3,44.3,30.05,ESE,112,3.7,-999.0,29,-99.99,,,0.00,Acu-Link.com,2013-10-16 16:37:00,
2013-10-16 09:52:00,81.1,44.9,30.06,ENE,67,2.2,-999.0,28,-99.99,,,0.00,Acu-Link.com,2013-10-16 16:52:00,
2013-10-16 10:08:00,81.1,44.9,30.06,WSW,247,4.2,-999.0,28,-99.99,,,0.00,Acu-Link.com,2013-10-16 17:08:00,
2013-10-16 10:23:00,82.9,46.4,30.05,ENE,67,2.2,-999.0,28,-99.99,,,0.00,Acu-Link.com,2013-10-16 17:23:00,
2013-10-16 10:38:00,83.8,46.2,30.05,East,90,1.7,-999.0,27,-99.99,,,0.00,Acu-Link.com,2013-10-16 17:38:00,
2013-10-16 10:53:00,84.6,46.9,30.05,NE,45,4.2,-999.0,27,-99.99,,,0.00,Acu-Link.com,2013-10-16 17:53:00,
2013-10-16 11:08:00,85.6,46.8,30.05,NNW,337,3.7,-999.0,26,-99.99,,,0.00,Acu-Link.com,2013-10-16 18:08:00,
2013-10-16 11:24:00,85.3,46.5,30.04,South,180,2.2,-999.0,26,-99.99,,,0.00,Acu-Link.com,2013-10-16 18:24:00,
2013-10-16 11:39:00,86.9,46.8,30.04,ESE,112,2.2,-999.0,25,-99.99,,,0.00,Acu-Link.com,2013-10-16 18:39:00,
2013-10-16 11:54:00,87.4,47.2,30.02,ESE,112,1.7,-999.0,25,-99.99,,,0.00,Acu-Link.com,2013-10-16 18:54:00,
2013-10-16 12:09:00,87.4,47.2,30.02,SE,135,1.7,-999.0,25,-99.99,,,0.00,Acu-Link.com,2013-10-16 19:09:00,
2013-10-16 12:25:00,87.8,46.5,30.01,NNE,22,1.7,-999.0,24,-99.99,,,0.00,Acu-Link.com,2013-10-16 19:25:00,
2013-10-16 12:40:00,88.0,46.6,30.00,SE,135,4.2,-999.0,24,-99.99,,,0.00,Acu-Link.com,2013-10-16 19:40:00,
2013-10-16 12:55:00,88.0,46.6,30.01,East,90,5.3,-999.0,24,-99.99,,,0.00,Acu-Link.com,2013-10-16 19:55:00,
2013-10-16 13:10:00,88.9,46.3,29.99,NE,45,2.7,-999.0,23,-99.99,,,0.00,Acu-Link.com,2013-10-16 20:10:00,
2013-10-16 13:25:00,88.9,46.3,29.98,ENE,67,2.2,-999.0,23,-99.99,,,0.00,Acu-Link.com,2013-10-16 20:25:00,
2013-10-16 13:41:00,88.7,46.1,29.98,SSW,202,5.3,-999.0,23,-99.99,,,0.00,Acu-Link.com,2013-10-16 20:41:00,
2013-10-16 13:56:00,88.7,44.9,29.97,ESE,112,4.2,-999.0,22,-99.99,,,0.00,Acu-Link.com,2013-10-16 20:56:00,
2013-10-16 14:11:00,88.2,44.5,29.96,SW,225,3.2,-999.0,22,-99.99,,,0.00,Acu-Link.com,2013-10-16 21:11:00,
2013-10-16 14:26:00,89.8,45.8,29.96,NNE,22,3.7,-999.0,22,-99.99,,,0.00,Acu-Link.com,2013-10-16 21:26:00,
2013-10-16 14:41:00,89.6,45.7,29.95,East,90,3.2,-999.0,22,-99.99,,,0.00,Acu-Link.com,2013-10-16 21:41:00,
2013-10-16 14:57:00,88.7,44.9,29.95,South,180,3.7,-999.0,22,-99.99,,,0.00,Acu-Link.com,2013-10-16 21:57:00,
2013-10-16 15:12:00,87.4,42.6,29.95,SE,135,6.3,-999.0,21,-99.99,,,0.00,Acu-Link.com,2013-10-16 22:12:00,
2013-10-16 15:27:00,86.9,42.2,29.95,ESE,112,4.2,-999.0,21,-99.99,,,0.00,Acu-Link.com,2013-10-16 22:27:00,
2013-10-16 15:42:00,83.3,40.5,29.94,SW,225,5.8,-999.0,22,-99.99,,,0.00,Acu-Link.com,2013-10-16 22:42:00,
2013-10-16 15:57:00,81.7,41.4,29.94,South,180,5.3,-999.0,24,-99.99,,,0.00,Acu-Link.com,2013-10-16 22:57:00,
2013-10-16 16:13:00,80.6,41.5,29.92,South,180,7.3,-999.0,25,-99.99,,,0.00,Acu-Link.com,2013-10-16 23:13:00,
2013-10-16 16:28:00,80.2,41.2,29.91,SSW,202,4.2,-999.0,25,-99.99,,,0.00,Acu-Link.com,2013-10-16 23:28:00,
2013-10-16 16:43:00,79.3,40.4,29.91,SW,225,5.8,-999.0,25,-99.99,,,0.00,Acu-Link.com,2013-10-16 23:43:00,
2013-10-16 16:58:00,78.8,41.0,29.92,WSW,247,6.8,-999.0,26,-99.99,,,0.00,Acu-Link.com,2013-10-16 23:58:00,
2013-10-16 17:14:00,77.7,41.0,29.91,SSW,202,6.3,-999.0,27,-99.99,,,0.00,Acu-Link.com,2013-10-17 00:14:00,
2013-10-16 17:29:00,76.6,40.1,29.92,SSW,202,4.2,-999.0,27,-99.99,,,0.00,Acu-Link.com,2013-10-17 00:29:00,
2013-10-16 17:44:00,75.6,40.2,29.92,SW,225,2.7,-999.0,28,-99.99,,,0.00,Acu-Link.com,2013-10-17 00:44:00,
2013-10-16 17:59:00,74.5,40.1,29.94,WSW,247,3.2,-999.0,29,-99.99,,,0.00,Acu-Link.com,2013-10-17 00:59:00,
2013-10-16 18:14:00,73.2,40.7,29.95,WSW,247,0.0,-999.0,31,-99.99,,,0.00,Acu-Link.com,2013-10-17 01:14:00,
2013-10-16 18:30:00,71.4,40.8,29.95,WSW,247,1.1,-999.0,33,-99.99,,,0.00,Acu-Link.com,2013-10-17 01:30:00,
2013-10-16 18:45:00,69.4,39.8,29.96,WSW,247,0.0,-999.0,34,-99.99,,,0.00,Acu-Link.com,2013-10-17 01:45:00,
2013-10-16 19:00:00,67.8,39.9,29.96,WSW,247,0.0,-999.0,36,-99.99,,,0.00,Acu-Link.com,2013-10-17 02:00:00,
2013-10-16 19:15:00,65.1,38.9,29.96,WSW,247,1.7,-999.0,38,-99.99,,,0.00,Acu-Link.com,2013-10-17 02:15:00,
2013-10-16 19:30:00,64.0,39.2,29.97,WSW,247,1.1,-999.0,40,-99.99,,,0.00,Acu-Link.com,2013-10-17 02:30:00,
2013-10-16 19:46:00,62.4,38.4,29.97,WSW,247,1.1,-999.0,41,-99.99,,,0.00,Acu-Link.com,2013-10-17 02:46:00,
2013-10-16 20:01:00,60.3,37.7,29.97,WSW,247,1.7,-999.0,43,-99.99,,,0.00,Acu-Link.com,2013-10-17 03:01:00,
2013-10-16 20:16:00,59.5,38.1,29.97,WSW,247,1.7,-999.0,45,-99.99,,,0.00,Acu-Link.com,2013-10-17 03:16:00,
2013-10-16 20:31:00,58.6,37.9,29.97,WSW,247,0.0,-999.0,46,-99.99,,,0.00,Acu-Link.com,2013-10-17 03:31:00,
2013-10-16 20:46:00,57.4,37.3,29.97,WSW,247,1.7,-999.0,47,-99.99,,,0.00,Acu-Link.com,2013-10-17 03:46:00,
2013-10-16 21:02:00,56.7,37.8,29.98,WSW,247,0.0,-999.0,49,-99.99,,,0.00,Acu-Link.com,2013-10-17 04:02:00,
2013-10-16 21:17:00,55.9,37.5,29.97,WSW,247,0.0,-999.0,50,-99.99,,,0.00,Acu-Link.com,2013-10-17 04:17:00,
2013-10-16 21:32:00,55.4,37.1,29.98,WSW,247,1.7,-999.0,50,-99.99,,,0.00,Acu-Link.com,2013-10-17 04:32:00,
2013-10-16 21:47:00,55.2,37.4,29.98,WSW,247,1.1,-999.0,51,-99.99,,,0.00,Acu-Link.com,2013-10-17 04:47:00,
2013-10-16 22:02:00,54.7,36.9,29.98,WSW,247,1.7,-999.0,51,-99.99,,,0.00,Acu-Link.com,2013-10-17 05:02:00,
2013-10-16 22:19:00,54.9,37.6,29.98,WSW,247,1.7,-999.0,52,-99.99,,,0.00,Acu-Link.com,2013-10-17 05:19:00,
2013-10-16 22:34:00,55.0,37.7,29.98,WSW,247,1.7,-999.0,52,-99.99,,,0.00,Acu-Link.com,2013-10-17 05:34:00,
2013-10-16 22:49:00,55.4,38.1,29.98,WSW,247,1.1,-999.0,52,-99.99,,,0.00,Acu-Link.com,2013-10-17 05:49:00,
2013-10-16 23:04:00,55.2,37.4,29.99,WSW,247,2.2,-999.0,51,-99.99,,,0.00,Acu-Link.com,2013-10-17 06:04:00,
2013-10-16 23:20:00,55.0,37.2,29.99,WSW,247,1.7,-999.0,51,-99.99,,,0.00,Acu-Link.com,2013-10-17 06:20:00,
2013-10-16 23:35:00,55.0,37.2,29.99,WSW,247,1.7,-999.0,51,-99.99,,,0.00,Acu-Link.com,2013-10-17 06:35:00,
2013-10-16 23:50:00,54.5,36.7,30.00,WSW,247,1.1,-999.0,51,-99.99,,,0.00,Acu-Link.com,2013-10-17 06:50:00,